createdAt,value
2022-11-05T00:00:07.401Z,0
2022-11-05T00:03:07.463Z,0
2022-11-05T00:06:07.351Z,0
2022-11-05T00:09:07.321Z,0
2022-11-05T00:12:07.318Z,0
2022-11-05T00:15:07.335Z,0
2022-11-05T00:18:07.349Z,0
2022-11-05T00:21:07.350Z,0
2022-11-05T00:24:07.280Z,0
2022-11-05T00:27:07.383Z,0
2022-11-05T00:30:07.435Z,0
2022-11-05T00:33:07.456Z,0
2022-11-05T00:36:07.338Z,0
2022-11-05T00:39:07.361Z,0
2022-11-05T00:42:07.399Z,0
2022-11-05T00:45:07.530Z,0
2022-11-05T00:48:07.390Z,0
2022-11-05T00:51:07.355Z,0
2022-11-05T00:54:07.339Z,0
2022-11-05T00:57:11.558Z,0
2022-11-05T01:00:07.453Z,0
2022-11-05T01:03:07.478Z,0
2022-11-05T01:06:07.403Z,0
2022-11-05T01:09:07.314Z,0
2022-11-05T01:12:07.367Z,0
2022-11-05T01:15:07.350Z,0
2022-11-05T01:18:07.392Z,0
2022-11-05T01:21:07.417Z,0
2022-11-05T01:24:07.388Z,0
2022-11-05T01:27:07.399Z,0
2022-11-05T01:30:07.411Z,0
2022-11-05T01:33:07.375Z,0
2022-11-05T01:36:07.365Z,0
2022-11-05T01:39:07.379Z,0
2022-11-05T01:42:07.358Z,0
2022-11-05T01:45:07.448Z,0
2022-11-05T01:48:07.370Z,0
2022-11-05T01:51:07.366Z,0
2022-11-05T01:54:07.356Z,0
2022-11-05T01:57:07.337Z,0
2022-11-05T02:00:07.355Z,0
2022-11-05T02:03:07.850Z,0
2022-11-05T02:06:07.447Z,0
2022-11-05T02:09:07.297Z,0
2022-11-05T02:12:07.417Z,0
2022-11-05T02:15:07.340Z,0
2022-11-05T02:18:07.305Z,0
2022-11-05T02:21:07.396Z,0
2022-11-05T02:24:07.284Z,0
2022-11-05T02:27:07.313Z,0
2022-11-05T02:30:07.347Z,0
2022-11-05T02:33:07.562Z,0
2022-11-05T02:36:07.358Z,0
2022-11-05T02:39:07.336Z,0
2022-11-05T02:42:12.003Z,0
2022-11-05T02:45:07.332Z,0
2022-11-05T02:48:07.349Z,0
2022-11-05T02:51:07.651Z,0
2022-11-05T02:54:07.329Z,0
2022-11-05T02:57:07.374Z,0
2022-11-05T03:00:07.353Z,0
2022-11-05T03:03:07.892Z,0
2022-11-05T03:06:07.367Z,0
2022-11-05T03:09:07.355Z,0
2022-11-05T03:12:07.403Z,0
2022-11-05T03:15:07.502Z,0
2022-11-05T03:18:07.518Z,0
2022-11-05T03:21:07.512Z,0
2022-11-05T03:24:07.335Z,0
2022-11-05T03:27:07.327Z,0
2022-11-05T03:30:07.372Z,0
2022-11-05T03:33:07.349Z,0
2022-11-05T03:36:07.324Z,0
2022-11-05T03:39:07.335Z,0
2022-11-05T03:42:07.340Z,0
2022-11-05T03:45:07.374Z,0
2022-11-05T03:48:07.366Z,0
2022-11-05T03:51:07.273Z,0
2022-11-05T03:54:07.365Z,0
2022-11-05T03:57:07.403Z,0
2022-11-05T04:00:07.394Z,0
2022-11-05T04:03:07.896Z,0
2022-11-05T04:06:07.315Z,0
2022-11-05T04:09:07.360Z,0
2022-11-05T04:12:07.364Z,0
2022-11-05T04:15:07.317Z,0
2022-11-05T04:18:07.321Z,0
2022-11-05T04:21:07.349Z,0
2022-11-05T04:24:07.385Z,0
2022-11-05T04:27:07.384Z,0
2022-11-05T04:30:07.392Z,0
2022-11-05T04:33:07.363Z,0
2022-11-05T04:36:07.355Z,0
2022-11-05T04:39:07.361Z,0
2022-11-05T04:42:07.355Z,0
2022-11-05T04:45:07.318Z,0
2022-11-05T04:48:07.391Z,0
2022-11-05T04:51:07.328Z,0
2022-11-05T04:54:07.361Z,0
2022-11-05T04:57:07.306Z,0
2022-11-05T05:00:07.429Z,0
2022-11-05T05:03:07.352Z,0
2022-11-05T05:06:10.938Z,0
2022-11-05T05:09:07.320Z,0
2022-11-05T05:12:07.315Z,0
2022-11-05T05:15:07.347Z,0
2022-11-05T05:18:07.289Z,0
2022-11-05T05:21:07.347Z,0
2022-11-05T05:24:07.334Z,0
2022-11-05T05:27:07.406Z,0
2022-11-05T05:30:07.370Z,0
2022-11-05T05:33:07.270Z,0
2022-11-05T05:36:13.879Z,0
2022-11-05T05:39:07.270Z,0
2022-11-05T05:42:07.409Z,0
2022-11-05T05:45:07.379Z,0
2022-11-05T05:48:07.346Z,3
2022-11-05T05:51:07.355Z,3
2022-11-05T05:54:07.352Z,7
2022-11-05T05:57:07.368Z,10
2022-11-05T06:00:07.387Z,17
2022-11-05T06:03:07.853Z,30
2022-11-05T06:06:07.328Z,50
2022-11-05T06:09:07.345Z,77
2022-11-05T06:12:07.353Z,113
2022-11-05T06:15:07.329Z,160
2022-11-05T06:18:07.391Z,213
2022-11-05T06:21:07.270Z,267
2022-11-05T06:24:07.420Z,337
2022-11-05T06:27:07.377Z,410
2022-11-05T06:30:07.667Z,503
2022-11-05T06:33:07.399Z,667
2022-11-05T06:36:07.500Z,770
2022-11-05T06:39:07.342Z,867
2022-11-05T06:42:26.238Z,1010
2022-11-05T06:45:07.384Z,1143
2022-11-05T06:48:07.383Z,1243
2022-11-05T06:51:07.440Z,1353
2022-11-05T06:54:07.841Z,1463
2022-11-05T06:57:07.389Z,1573
2022-11-05T07:00:14.815Z,1710
2022-11-05T07:03:07.327Z,1877
2022-11-05T07:06:07.421Z,1990
2022-11-05T07:09:08.026Z,2083
2022-11-05T07:12:07.337Z,2157
2022-11-05T07:15:07.351Z,2247
2022-11-05T07:18:07.669Z,2333
2022-11-05T07:21:07.386Z,2417
2022-11-05T07:24:07.361Z,2507
2022-11-05T07:27:07.363Z,2587
2022-11-05T07:30:07.505Z,2663
2022-11-05T07:33:07.378Z,2737
2022-11-05T07:36:07.464Z,2807
2022-11-05T07:39:07.565Z,2887
2022-11-05T07:42:07.426Z,2993
2022-11-05T07:45:07.396Z,3087
2022-11-05T07:48:07.574Z,3183
2022-11-05T07:51:07.348Z,3227
2022-11-05T07:54:07.431Z,3283
2022-11-05T07:57:07.353Z,3350
2022-11-05T08:00:07.507Z,3420
2022-11-05T08:03:17.103Z,3487
2022-11-05T08:06:07.441Z,3550
2022-11-05T08:09:07.395Z,3637
2022-11-05T08:12:10.150Z,3737
2022-11-05T08:15:07.439Z,3807
2022-11-05T08:18:07.440Z,3953
2022-11-05T08:21:07.437Z,4073
2022-11-05T08:24:07.435Z,4183
2022-11-05T08:27:07.479Z,4360
2022-11-05T08:30:07.521Z,4510
2022-11-05T08:33:07.421Z,11373
2022-11-05T08:36:07.483Z,15077
2022-11-05T08:39:07.408Z,9853
2022-11-05T08:42:07.436Z,16020
2022-11-05T08:45:07.537Z,21150
2022-11-05T08:48:07.445Z,17870
2022-11-05T08:51:07.396Z,21757
2022-11-05T08:54:07.382Z,21977
2022-11-05T08:57:07.442Z,21603
2022-11-05T09:00:08.427Z,21973
2022-11-05T09:03:07.402Z,22357
2022-11-05T09:06:07.414Z,23353
2022-11-05T09:09:07.403Z,17013
2022-11-05T09:12:19.869Z,20917
2022-11-05T09:15:07.369Z,24600
2022-11-05T09:18:07.526Z,24870
2022-11-05T09:21:07.515Z,24463
2022-11-05T09:24:07.416Z,25553
2022-11-05T09:27:07.391Z,27007
2022-11-05T09:30:07.455Z,28830
2022-11-05T09:33:07.394Z,33917
2022-11-05T09:36:07.416Z,32810
2022-11-05T09:39:08.204Z,33283
2022-11-05T09:42:07.819Z,31993
2022-11-05T09:45:07.507Z,30717
2022-11-05T09:48:07.536Z,15297
2022-11-05T09:51:07.390Z,10997
2022-11-05T09:54:07.452Z,29207
2022-11-05T09:57:07.399Z,29067
2022-11-05T10:00:07.501Z,30877
2022-11-05T10:03:07.442Z,19897
2022-11-05T10:06:07.467Z,10513
2022-11-05T10:09:07.374Z,23207
2022-11-05T10:12:07.409Z,22153
2022-11-05T10:15:07.670Z,22817
2022-11-05T10:18:07.420Z,32420
2022-11-05T10:21:07.433Z,30193
2022-11-05T10:24:07.525Z,30200
2022-11-05T10:27:07.414Z,29793
2022-11-05T10:30:07.459Z,29727
2022-11-05T10:33:07.412Z,29453
2022-11-05T10:36:07.439Z,30187
2022-11-05T10:39:07.426Z,30717
2022-11-05T10:42:07.529Z,30687
2022-11-05T10:45:07.469Z,31223
2022-11-05T10:48:07.453Z,32827
2022-11-05T10:51:07.494Z,28600
2022-11-05T10:54:09.048Z,31237
2022-11-05T10:57:07.503Z,31263
2022-11-05T11:00:07.735Z,31427
2022-11-05T11:03:07.474Z,32307
2022-11-05T11:06:07.464Z,33763
2022-11-05T11:09:07.645Z,33577
2022-11-05T11:12:07.493Z,34013
2022-11-05T11:15:07.433Z,31317
2022-11-05T11:18:07.448Z,30540
2022-11-05T11:21:07.553Z,10187
2022-11-05T11:24:07.509Z,30170
2022-11-05T11:27:07.420Z,31237
2022-11-05T11:30:07.512Z,31023
2022-11-05T11:33:07.615Z,23167
2022-11-05T11:36:07.430Z,29670
2022-11-05T11:39:07.499Z,12750
2022-11-05T11:42:07.388Z,36693
2022-11-05T11:45:07.403Z,17590
2022-11-05T11:48:07.408Z,32970
2022-11-05T11:51:07.477Z,30143
2022-11-05T11:54:07.384Z,31473
2022-11-05T11:57:10.334Z,30760
2022-11-05T12:00:16.879Z,31090
2022-11-05T12:03:09.296Z,30433
2022-11-05T12:06:07.384Z,29357
2022-11-05T12:09:13.830Z,28647
2022-11-05T12:12:07.389Z,28363
2022-11-05T12:15:08.014Z,28120
2022-11-05T12:18:07.439Z,28067
2022-11-05T12:21:07.598Z,7210
2022-11-05T12:24:07.436Z,5367
2022-11-05T12:27:07.513Z,5307
2022-11-05T12:30:07.530Z,5463
2022-11-05T12:33:08.046Z,5700
2022-11-05T12:36:07.479Z,6000
2022-11-05T12:39:07.512Z,6497
2022-11-05T12:42:07.362Z,7117
2022-11-05T12:45:07.514Z,7467
2022-11-05T12:48:07.433Z,6583
2022-11-05T12:51:07.570Z,6767
2022-11-05T12:54:07.478Z,5807
2022-11-05T12:57:07.629Z,12250
2022-11-05T13:00:07.625Z,14433
2022-11-05T13:03:07.620Z,4650
2022-11-05T13:06:12.928Z,7683
2022-11-05T13:09:07.477Z,6893
2022-11-05T13:12:07.813Z,23770
2022-11-05T13:15:07.487Z,23190
2022-11-05T13:18:07.660Z,22277
2022-11-05T13:21:07.396Z,4157
2022-11-05T13:24:07.772Z,21903
2022-11-05T13:27:07.529Z,21857
2022-11-05T13:30:08.130Z,21640
2022-11-05T13:33:07.421Z,21537
2022-11-05T13:36:07.574Z,21093
2022-11-05T13:39:07.562Z,20783
2022-11-05T13:42:07.631Z,20293
2022-11-05T13:45:07.393Z,19970
2022-11-05T13:48:07.659Z,20007
2022-11-05T13:51:07.386Z,19340
2022-11-05T13:54:07.680Z,18333
2022-11-05T13:57:07.397Z,17520
2022-11-05T14:00:07.996Z,17050
2022-11-05T14:03:07.389Z,16520
2022-11-05T14:06:07.576Z,16113
2022-11-05T14:09:07.428Z,15600
2022-11-05T14:12:07.677Z,15110
2022-11-05T14:15:07.347Z,14763
2022-11-05T14:18:07.649Z,14177
2022-11-05T14:21:07.445Z,13557
2022-11-05T14:24:07.642Z,12967
2022-11-05T14:27:07.393Z,12037
2022-11-05T14:30:07.621Z,11400
2022-11-05T14:33:07.372Z,10947
2022-11-05T14:36:07.656Z,10370
2022-11-05T14:39:11.264Z,10080
2022-11-05T14:42:07.664Z,9513
2022-11-05T14:45:07.519Z,8797
2022-11-05T14:48:07.723Z,8183
2022-11-05T14:51:07.399Z,4497
2022-11-05T14:54:07.578Z,2423
2022-11-05T14:57:07.323Z,2333
2022-11-05T15:00:08.234Z,1707
2022-11-05T15:03:07.357Z,1460
2022-11-05T15:06:07.568Z,1310
2022-11-05T15:09:07.382Z,1197
2022-11-05T15:12:07.685Z,1083
2022-11-05T15:15:07.535Z,987
2022-11-05T15:18:07.681Z,897
2022-11-05T15:21:07.355Z,813
2022-11-05T15:24:07.725Z,733
2022-11-05T15:27:07.368Z,653
2022-11-05T15:30:07.828Z,593
2022-11-05T15:33:07.356Z,507
2022-11-05T15:36:07.522Z,427
2022-11-05T15:39:36.487Z,353
2022-11-05T15:42:07.526Z,287
2022-11-05T15:45:07.403Z,227
2022-11-05T15:48:07.450Z,167
2022-11-05T15:51:07.354Z,113
2022-11-05T15:54:39.021Z,77
2022-11-05T15:57:07.355Z,50
2022-11-05T16:00:07.503Z,30
2022-11-05T16:03:07.349Z,17
2022-11-05T16:06:07.607Z,10
2022-11-05T16:09:07.286Z,7
2022-11-05T16:12:07.704Z,3
2022-11-05T16:15:07.341Z,3
2022-11-05T16:18:07.513Z,0
2022-11-05T16:21:07.330Z,0
2022-11-05T16:24:07.417Z,0
2022-11-05T16:27:12.141Z,0
2022-11-05T16:30:07.665Z,0
2022-11-05T16:33:07.567Z,0
2022-11-05T16:36:07.430Z,0
2022-11-05T16:39:07.755Z,0
2022-11-05T16:42:07.462Z,0
2022-11-05T16:45:07.329Z,0
2022-11-05T16:48:07.506Z,0
2022-11-05T16:51:07.337Z,0
2022-11-05T16:54:07.467Z,0
2022-11-05T16:57:07.512Z,0
2022-11-05T17:00:07.459Z,0
2022-11-05T17:03:07.686Z,0
2022-11-05T17:06:07.470Z,0
2022-11-05T17:09:07.322Z,0
2022-11-05T17:12:07.460Z,0
2022-11-05T17:15:07.358Z,0
2022-11-05T17:18:07.443Z,0
2022-11-05T17:21:07.296Z,0
2022-11-05T17:24:07.420Z,0
2022-11-05T17:27:07.308Z,0
2022-11-05T17:30:07.430Z,0
2022-11-05T17:33:07.838Z,0
2022-11-05T17:36:07.835Z,0
2022-11-05T17:39:07.426Z,0
2022-11-05T17:42:07.729Z,0
2022-11-05T17:45:07.365Z,0
2022-11-05T17:48:07.447Z,0
2022-11-05T17:51:07.379Z,0
2022-11-05T17:54:07.407Z,0
2022-11-05T17:57:07.334Z,0
2022-11-05T18:00:08.417Z,0
2022-11-05T18:03:07.380Z,0
2022-11-05T18:06:07.527Z,0
2022-11-05T18:09:07.423Z,0
2022-11-05T18:12:07.419Z,0
2022-11-05T18:15:07.409Z,0
2022-11-05T18:18:07.763Z,0
2022-11-05T18:21:07.367Z,0
2022-11-05T18:24:07.494Z,0
2022-11-05T18:27:07.349Z,0
2022-11-05T18:30:07.582Z,0
2022-11-05T18:33:07.660Z,0
2022-11-05T18:36:07.552Z,0
2022-11-05T18:39:07.681Z,0
2022-11-05T18:42:07.405Z,0
2022-11-05T18:45:07.684Z,0
2022-11-05T18:48:07.468Z,0
2022-11-05T18:51:08.949Z,0
2022-11-05T18:54:07.486Z,0
2022-11-05T18:57:07.335Z,0
2022-11-05T19:00:07.427Z,0
2022-11-05T19:03:07.679Z,0
2022-11-05T19:06:07.375Z,0
2022-11-05T19:09:07.447Z,0
2022-11-05T19:12:07.361Z,0
2022-11-05T19:15:09.865Z,0
2022-11-05T19:18:07.345Z,0
2022-11-05T19:21:07.347Z,0
2022-11-05T19:24:07.357Z,0
2022-11-05T19:27:07.385Z,0
2022-11-05T19:30:07.446Z,0
2022-11-05T19:33:07.484Z,0
2022-11-05T19:39:07.418Z,0
2022-11-05T19:42:11.362Z,0
2022-11-05T19:45:50.831Z,0
2022-11-05T19:48:07.822Z,0
2022-11-05T19:51:07.371Z,0
2022-11-05T19:54:07.387Z,0
2022-11-05T19:57:07.332Z,0
2022-11-05T20:00:08.065Z,0
2022-11-05T20:03:07.820Z,0
2022-11-05T20:06:07.867Z,0
2022-11-05T20:09:29.793Z,0
2022-11-05T20:12:07.372Z,0
2022-11-05T20:15:07.362Z,0
2022-11-05T20:18:07.344Z,0
2022-11-05T20:21:07.274Z,0
2022-11-05T20:24:07.338Z,0
2022-11-05T20:27:07.310Z,0
2022-11-05T20:30:07.345Z,0
2022-11-05T20:33:07.288Z,0
2022-11-05T20:36:07.324Z,0
2022-11-05T20:39:07.366Z,0
2022-11-05T20:42:07.481Z,0
2022-11-05T20:45:07.297Z,0
2022-11-05T20:48:07.304Z,0
2022-11-05T20:51:07.358Z,0
2022-11-05T20:54:07.403Z,0
2022-11-05T20:57:07.562Z,0
2022-11-05T21:00:07.389Z,0
2022-11-05T21:03:07.804Z,0
2022-11-05T21:06:07.347Z,0
2022-11-05T21:09:07.353Z,0
2022-11-05T21:12:07.328Z,0
2022-11-05T21:15:07.363Z,0
2022-11-05T21:18:07.344Z,0
2022-11-05T21:21:07.382Z,0
2022-11-05T21:24:07.307Z,0
2022-11-05T21:27:07.315Z,0
2022-11-05T21:30:07.366Z,0
2022-11-05T21:33:07.332Z,0
2022-11-05T21:36:07.276Z,0
2022-11-05T21:39:14.257Z,0
2022-11-05T21:42:07.309Z,0
2022-11-05T21:45:07.704Z,0
2022-11-05T21:51:07.300Z,0
2022-11-05T21:54:07.348Z,0
2022-11-05T21:57:13.256Z,0
2022-11-05T22:00:07.463Z,0
2022-11-05T22:03:07.550Z,0
2022-11-05T22:06:07.352Z,0
2022-11-05T22:09:07.301Z,0
2022-11-05T22:12:07.467Z,0
2022-11-05T22:15:07.335Z,0
2022-11-05T22:18:07.274Z,0
2022-11-05T22:21:07.313Z,0
2022-11-05T22:24:07.364Z,0
2022-11-05T22:27:07.330Z,0
2022-11-05T22:30:07.289Z,0
2022-11-05T22:33:07.317Z,0
2022-11-05T22:36:07.331Z,0
2022-11-05T22:39:07.362Z,0
2022-11-05T22:42:15.685Z,0
2022-11-05T22:45:07.372Z,0
2022-11-05T22:48:16.410Z,0
2022-11-05T22:51:07.868Z,0
2022-11-05T22:54:07.314Z,0
2022-11-05T22:57:07.301Z,0
2022-11-05T23:00:07.635Z,0
2022-11-05T23:03:08.240Z,0
2022-11-05T23:06:07.353Z,0
2022-11-05T23:09:07.294Z,0
2022-11-05T23:12:07.337Z,0
2022-11-05T23:15:07.292Z,0
2022-11-05T23:18:07.404Z,0
2022-11-05T23:21:07.295Z,0
2022-11-05T23:24:07.334Z,0
2022-11-05T23:27:07.339Z,0
2022-11-05T23:30:07.314Z,0
2022-11-05T23:33:07.327Z,0
2022-11-05T23:36:07.360Z,0
2022-11-05T23:39:07.325Z,0
2022-11-05T23:42:07.271Z,0
2022-11-05T23:45:10.420Z,0
2022-11-05T23:48:07.307Z,0
2022-11-05T23:51:07.333Z,0
2022-11-05T23:54:07.425Z,0
2022-11-05T23:57:07.428Z,0
